KCOE

Coeur D'alene - Pappy Boyington Field Airport

Coeur D'alene, Idaho, USA
KCOE 232324Z 2400/2424 14005KT P6SM OVC120 FM240900 17004KT P6SM SCT150 FM241200 14004KT P6SM SCT012 SCT080 FM241900 18006KT P6SM FEW018 SCT035 BKN200 FM242200 23007KT P6SM OVC120
Issued Valid From Valid To
Oct-23 @ 23:24 UTC
(6 hours ago)
Oct-24 @ 00:00 UTC
(5 hours ago)
Oct-25 @ 00:00 UTC
(in 19 hours)
Oct-24 @ 00:00 to Oct-24 @ 09:00
KCOE 232324Z 2400/2424 14005KT P6SM OVC120
Wind Visibility Clouds
140° at 5 knots Greater than 6 miles
  • Overcast at 12,000' AGL
From Oct-24 @ 09:00 to Oct-24 @ 12:00
FM240900 17004KT P6SM SCT150
Wind Visibility Clouds
170° at 4 knots Greater than 6 miles
  • Scattered at 15,000' AGL
From Oct-24 @ 12:00 to Oct-24 @ 19:00
FM241200 14004KT P6SM SCT012 SCT080
Wind Visibility Clouds
140° at 4 knots Greater than 6 miles
  • Scattered at 1,200' AGL
  • Scattered at 8,000' AGL
From Oct-24 @ 19:00 to Oct-24 @ 22:00
FM241900 18006KT P6SM FEW018 SCT035 BKN200
Wind Visibility Clouds
180° at 6 knots Greater than 6 miles
  • Few at 1,800' AGL
  • Scattered at 3,500' AGL
  • Broken at 20,000' AGL
From Oct-24 @ 22:00 to Oct-25 @ 00:00
FM242200 23007KT P6SM OVC120
Wind Visibility Clouds
230° at 7 knots Greater than 6 miles
  • Overcast at 12,000' AGL
KCOE 232324Z 2400/2424 14005KT P6SM OVC120 FM240900 17004KT P6SM SCT150 FM241200 14004KT P6SM SCT012 SCT080 FM241900 18006KT P6SM FEW018 SCT035 BKN200 FM242200 23007KT P6SM OVC120
Issued Oct-23 @ 23:24 UTC
(6 hours ago)
Valid From Oct-24 @ 00:00 UTC
(5 hours ago)
Valid To Oct-25 @ 00:00 UTC
(in 19 hours)
Oct-24 @ 00:00 - Oct-24 @ 09:00
Wind Visibility
140° at 5 knots Greater than 6 miles
Clouds
  • Overcast at 12,000' AGL
From Oct-24 @ 09:00 - Oct-24 @ 12:00
Wind Visibility
170° at 4 knots Greater than 6 miles
Clouds
  • Scattered at 15,000' AGL
From Oct-24 @ 12:00 - Oct-24 @ 19:00
Wind Visibility
140° at 4 knots Greater than 6 miles
Clouds
  • Scattered at 1,200' AGL
  • Scattered at 8,000' AGL
From Oct-24 @ 19:00 - Oct-24 @ 22:00
Wind Visibility
180° at 6 knots Greater than 6 miles
Clouds
  • Few at 1,800' AGL
  • Scattered at 3,500' AGL
  • Broken at 20,000' AGL
From Oct-24 @ 22:00 - Oct-25 @ 00:00
Wind Visibility
230° at 7 knots Greater than 6 miles
Clouds
  • Overcast at 12,000' AGL